Hyannis, MA

9:04 AM EDT on August 27, 2014 (GMT -0400)
Hyannis Woods | Change Station
CLOSE
Current Station
Personal Weather Station
Location: Barnstable, MA
Elevation: 66 ft
Nearby Weather Stations
Active Advisory: High Surf Advisory

Elev 66 ft 41.66 °N, 70.31 °W | Updated 1 minute ago

Partly Cloudy
Partly Cloudy
76.3 °F
Feels Like 78 °F
N
3.7
Wind Variable Wind from SSW

Today
High -- | Low -- °F
--% Chance of Precip.
Yesterday
High -- | Low -- °F
Precip. -- in
6:02 AM 7:22 PM
Waxing Crescent, 3% visible
Pressure 30.02 in
Visibility 10.0 miles
Clouds Few 1000 ft
Heat Index 78 °F
Dew Point 68 °F
Humidity 75%
Rainfall 0.00 in
Snow Depth Not available.
UV 3 out of 12
Pollen 8.60 out of 12
Air Quality Not available.
Flu Activity Not available.
METAR KHYA 271256Z 21010G16KT 10SM FEW010 23/19 A3002 RMK AO2 SLP165 T02280194

More Conditions Fewer Conditions

Pressure 30.02 in
Visibility 10.0 miles
Clouds Few 1000 ft
Heat Index 78 °F
Dew Point 68 °F
Humidity 75%
Rainfall 0.00 in
Snow Depth Not available.
UV 3 out of 12
Pollen 8.60 out of 12
Air Quality Not available.
Flu Activity Not available.
METAR KHYA 271256Z 21010G16KT 10SM FEW010 23/19 A3002 RMK AO2 SLP165 T02280194

More Conditions Fewer Conditions

10-Day Weather Forecast

Almanac

Astronomy

Aug. 27, 2014 Rise Set
Actual Time 6:02 AM EDT 7:22 PM EDT
Civil Twilight 5:33 AM EDT 7:51 PM EDT
Nautical Twilight 4:58 AM EDT 8:25 PM EDT
Astronomical Twilight 4:21 AM EDT 9:02 PM EDT
Moon 7:57 AM EDT 8:10 PM EDT
Length of Visible Light 14h 18m
Length of Day
13h 20m
Tomorrow will be 2m 38s shorter.
Waxing Crescent, 3% of the Moon is Illuminated
Today
Waxing Crescent
Sep 2
First Quarter
Sep 8
Full
Sep 15
Last Quarter
Sep 24
New

Today's Extremes

State Highs State Lows

Community

WunderPhotos

Upload Photos

1,747,680 photos uploaded!

Nearby

Air Quality

  Air Quality AQ Index Pollutant
Yesterday Good
OZONE
Wednesday Moderate
OZONE
Wednesday Good
PM2.5

Snow Depth

Station Depth Elevation
No new snow has been reported.

Earthquake Activity

City Distance Mag. Time & Date
No recent earthquake activity has been reported nearby.
Minimum magnitude displayed is 2.5.

Coastal Water Temperatures

Place Temperature
Nantucket Island, MA 71.1 °F
Woods Hole, MA 70.0 °F
Fall River, MA 73.0 °F
Boston, MA 66.9 °F

Nearby Weather Stations